createdAt,value
2019-05-14T00:00:41.629Z,1028.85
2019-05-14T00:01:42.215Z,1028.88
2019-05-14T00:02:41.366Z,1028.86
2019-05-14T00:03:41.340Z,1028.88
2019-05-14T00:04:42.306Z,1028.86
2019-05-14T00:05:42.485Z,1028.84
2019-05-14T00:06:41.823Z,1028.86
2019-05-14T00:07:41.412Z,1028.83
2019-05-14T00:08:41.841Z,1028.79
2019-05-14T00:09:41.322Z,1028.85
2019-05-14T00:10:41.206Z,1028.80
2019-05-14T00:11:42.065Z,1028.83
2019-05-14T00:12:41.902Z,1028.78
2019-05-14T00:13:41.306Z,1028.78
2019-05-14T00:14:43.364Z,1028.79
2019-05-14T00:15:41.412Z,1028.76
2019-05-14T00:16:42.378Z,1028.78
2019-05-14T00:17:41.645Z,1028.83
2019-05-14T00:18:41.951Z,1028.78
2019-05-14T00:19:41.691Z,1028.77
2019-05-14T00:20:41.963Z,1028.77
2019-05-14T00:21:42.332Z,1028.82
2019-05-14T00:22:41.664Z,1028.76
2019-05-14T00:23:42.037Z,1028.77
2019-05-14T00:24:41.680Z,1028.77
2019-05-14T00:25:41.907Z,1028.77
2019-05-14T00:26:42.677Z,1028.75
2019-05-14T00:27:41.414Z,1028.77
2019-05-14T00:28:42.203Z,1028.78
2019-05-14T00:29:41.876Z,1028.78
2019-05-14T00:30:42.238Z,1028.77
2019-05-14T00:31:42.514Z,1028.72
2019-05-14T00:32:41.423Z,1028.73
2019-05-14T00:33:41.900Z,1028.78
2019-05-14T00:34:42.415Z,1028.78
2019-05-14T00:35:41.335Z,1028.71
2019-05-14T00:36:41.730Z,1028.76
2019-05-14T00:37:41.441Z,1028.76
2019-05-14T00:38:41.966Z,1028.74
2019-05-14T00:39:41.705Z,1028.78
2019-05-14T00:40:41.992Z,1028.74
2019-05-14T00:41:42.046Z,1028.76
2019-05-14T00:42:41.467Z,1028.74
2019-05-14T00:43:41.580Z,1028.77
2019-05-14T00:44:51.577Z,1028.78
2019-05-14T00:45:41.794Z,1028.74
2019-05-14T00:46:41.094Z,1028.68
2019-05-14T00:47:41.776Z,1028.72
2019-05-14T00:48:42.016Z,1028.70
2019-05-14T00:49:42.290Z,1028.68
2019-05-14T00:50:42.133Z,1028.71
2019-05-14T00:51:41.314Z,1028.73
2019-05-14T00:52:42.202Z,1028.67
2019-05-14T00:53:42.069Z,1028.70
2019-05-14T00:54:41.617Z,1028.70
2019-05-14T00:55:41.955Z,1028.70
2019-05-14T00:56:41.684Z,1028.68
2019-05-14T00:57:42.412Z,1028.67
2019-05-14T00:58:41.452Z,1028.71
2019-05-14T00:59:41.663Z,1028.69
2019-05-14T01:00:41.827Z,1028.66
2019-05-14T01:01:42.268Z,1028.68
2019-05-14T01:02:41.615Z,1028.64
2019-05-14T01:03:41.458Z,1028.64
2019-05-14T01:04:42.505Z,1028.64
2019-05-14T01:05:41.405Z,1028.62
2019-05-14T01:06:42.119Z,1028.61
2019-05-14T01:07:42.085Z,1028.61
2019-05-14T01:08:41.374Z,1028.64
2019-05-14T01:09:41.846Z,1028.59
2019-05-14T01:10:41.785Z,1028.61
2019-05-14T01:11:41.928Z,1028.61
2019-05-14T01:12:41.369Z,1028.62
2019-05-14T01:13:41.634Z,1028.62
2019-05-14T01:14:42.125Z,1028.64
2019-05-14T01:15:41.524Z,1028.61
2019-05-14T01:16:42.231Z,1028.64
2019-05-14T01:17:42.003Z,1028.62
2019-05-14T01:18:41.470Z,1028.61
2019-05-14T01:19:42.183Z,1028.59
2019-05-14T01:20:41.153Z,1028.59
2019-05-14T01:21:41.762Z,1028.63
2019-05-14T01:22:42.055Z,1028.59
2019-05-14T01:23:41.521Z,1028.60
2019-05-14T01:24:41.641Z,1028.62
2019-05-14T01:25:42.054Z,1028.58
2019-05-14T01:26:41.632Z,1028.62
2019-05-14T01:27:41.403Z,1028.57
2019-05-14T01:28:41.500Z,1028.56
2019-05-14T01:29:42.166Z,1028.59
2019-05-14T01:30:41.109Z,1028.57
2019-05-14T01:31:41.599Z,1028.56
2019-05-14T01:32:41.860Z,1028.57
2019-05-14T01:33:41.067Z,1028.55
2019-05-14T01:34:41.837Z,1028.59
2019-05-14T01:35:41.877Z,1028.55
2019-05-14T01:36:41.390Z,1028.61
2019-05-14T01:37:41.576Z,1028.60
2019-05-14T01:38:41.726Z,1028.60
2019-05-14T01:39:41.709Z,1028.57
2019-05-14T01:40:41.785Z,1028.60
2019-05-14T01:41:42.097Z,1028.59
2019-05-14T01:42:41.592Z,1028.55
2019-05-14T01:43:41.746Z,1028.54
2019-05-14T01:44:41.303Z,1028.54
2019-05-14T01:45:41.559Z,1028.56
2019-05-14T01:46:41.835Z,1028.58
2019-05-14T01:47:41.440Z,1028.53
2019-05-14T01:48:41.614Z,1028.56
2019-05-14T01:49:39.512Z,1028.54
2019-05-14T01:50:41.406Z,1028.53
2019-05-14T01:51:42.121Z,1028.57
2019-05-14T01:52:41.467Z,1028.62
2019-05-14T01:53:41.492Z,1028.56
2019-05-14T01:54:39.472Z,1028.55
2019-05-14T01:55:41.298Z,1028.55
2019-05-14T01:56:39.433Z,1028.57
2019-05-14T01:57:39.413Z,1028.60
2019-05-14T01:58:41.534Z,1028.57
2019-05-14T01:59:39.395Z,1028.53
2019-05-14T02:00:41.483Z,1028.57
2019-05-14T02:01:41.498Z,1028.54
2019-05-14T02:02:41.551Z,1028.57
2019-05-14T02:03:41.093Z,1028.56
2019-05-14T02:04:39.334Z,1028.56
2019-05-14T02:05:41.475Z,1028.57
2019-05-14T02:06:41.354Z,1028.60
2019-05-14T02:07:39.313Z,1028.56
2019-05-14T02:08:41.294Z,1028.59
2019-05-14T02:09:41.787Z,1028.58
2019-05-14T02:10:39.269Z,1028.58
2019-05-14T02:11:41.303Z,1028.63
2019-05-14T02:12:39.267Z,1028.62
2019-05-14T02:13:41.272Z,1028.64
2019-05-14T02:14:39.238Z,1028.60
2019-05-14T02:15:42.734Z,1028.62
2019-05-14T02:16:39.236Z,1028.59
2019-05-14T02:17:41.350Z,1028.57
2019-05-14T02:18:41.453Z,1028.60
2019-05-14T02:19:39.197Z,1028.57
2019-05-14T02:20:41.330Z,1028.55
2019-05-14T02:21:39.160Z,1028.54
2019-05-14T02:22:41.105Z,1028.56
2019-05-14T02:23:39.155Z,1028.55
2019-05-14T02:24:41.484Z,1028.60
2019-05-14T02:25:41.158Z,1028.55
2019-05-14T02:26:39.119Z,1028.57
2019-05-14T02:27:41.183Z,1028.52
2019-05-14T02:28:39.081Z,1028.55
2019-05-14T02:29:41.388Z,1028.55
2019-05-14T02:30:51.913Z,1028.55
2019-05-14T02:31:40.051Z,1028.55
2019-05-14T02:32:40.461Z,1028.56
2019-05-14T02:33:39.637Z,1028.53
2019-05-14T02:34:40.031Z,1028.55
2019-05-14T02:35:39.818Z,1028.58
2019-05-14T02:36:40.287Z,1028.53
2019-05-14T02:37:40.177Z,1028.52
2019-05-14T02:38:39.080Z,1028.53
2019-05-14T02:39:41.107Z,1028.48
2019-05-14T02:40:40.366Z,1028.51
2019-05-14T02:41:39.408Z,1028.50
2019-05-14T02:42:40.101Z,1028.51
2019-05-14T02:43:40.828Z,1028.49
2019-05-14T02:44:40.779Z,1028.48
2019-05-14T02:45:51.033Z,1028.45
2019-05-14T02:46:40.615Z,1028.46
2019-05-14T02:47:39.908Z,1028.46
2019-05-14T02:48:40.120Z,1028.48
2019-05-14T02:49:39.825Z,1028.46
2019-05-14T02:50:39.672Z,1028.46
2019-05-14T02:51:39.226Z,1028.44
2019-05-14T02:52:40.197Z,1028.42
2019-05-14T02:53:39.205Z,1028.43
2019-05-14T02:54:40.421Z,1028.42
2019-05-14T02:55:39.113Z,1028.39
2019-05-14T02:56:40.160Z,1028.44
2019-05-14T02:57:39.562Z,1028.42
2019-05-14T02:58:40.229Z,1028.44
2019-05-14T02:59:39.640Z,1028.44
2019-05-14T03:00:40.803Z,1028.42
2019-05-14T03:01:40.598Z,1028.48
2019-05-14T03:02:40.260Z,1028.47
2019-05-14T03:03:40.235Z,1028.47
2019-05-14T03:04:39.434Z,1028.47
2019-05-14T03:05:40.177Z,1028.49
2019-05-14T03:06:39.492Z,1028.49
2019-05-14T03:07:39.620Z,1028.44
2019-05-14T03:08:39.193Z,1028.53
2019-05-14T03:09:40.307Z,1028.44
2019-05-14T03:10:40.300Z,1028.52
2019-05-14T03:11:40.396Z,1028.54
2019-05-14T03:12:39.532Z,1028.56
2019-05-14T03:13:39.999Z,1028.51
2019-05-14T03:14:39.582Z,1028.54
2019-05-14T03:15:39.241Z,1028.53
2019-05-14T03:16:43.662Z,1028.56
2019-05-14T03:17:40.442Z,1028.56
2019-05-14T03:18:39.735Z,1028.56
2019-05-14T03:19:40.770Z,1028.58
2019-05-14T03:20:39.223Z,1028.56
2019-05-14T03:21:39.609Z,1028.56
2019-05-14T03:22:53.418Z,1028.51
2019-05-14T03:23:39.603Z,1028.56
2019-05-14T03:24:39.684Z,1028.55
2019-05-14T03:25:39.935Z,1028.57
2019-05-14T03:26:39.805Z,1028.54
2019-05-14T03:27:40.589Z,1028.56
2019-05-14T03:28:39.831Z,1028.56
2019-05-14T03:29:39.936Z,1028.60
2019-05-14T03:30:42.278Z,1028.53
2019-05-14T03:31:42.713Z,1028.56
2019-05-14T03:32:42.611Z,1028.60
2019-05-14T03:33:43.862Z,1028.59
2019-05-14T03:34:43.258Z,1028.61
2019-05-14T03:35:44.347Z,1028.59
2019-05-14T03:36:43.083Z,1028.57
2019-05-14T03:37:39.115Z,1028.61
2019-05-14T03:38:39.709Z,1028.57
2019-05-14T03:39:39.612Z,1028.56
2019-05-14T03:41:14.419Z,1028.57
2019-05-14T03:41:39.735Z,1028.58
2019-05-14T03:42:39.910Z,1028.57
2019-05-14T03:43:39.164Z,1028.52
2019-05-14T03:44:39.991Z,1028.50
2019-05-14T03:45:39.110Z,1028.48
2019-05-14T03:46:45.932Z,1028.47
2019-05-14T03:47:39.642Z,1028.47
2019-05-14T03:48:40.087Z,1028.52
2019-05-14T03:49:39.721Z,1028.52
2019-05-14T03:50:38.968Z,1028.49
2019-05-14T03:51:39.462Z,1028.51
2019-05-14T03:52:39.908Z,1028.47
2019-05-14T03:53:55.279Z,1028.52
2019-05-14T03:54:40.523Z,1028.52
2019-05-14T03:55:40.240Z,1028.49
2019-05-14T03:56:39.441Z,1028.49
2019-05-14T03:57:39.823Z,1028.49
2019-05-14T03:58:39.256Z,1028.51
2019-05-14T03:59:40.231Z,1028.54
2019-05-14T04:00:38.997Z,1028.53
2019-05-14T04:01:40.034Z,1028.51
2019-05-14T04:02:39.150Z,1028.55
2019-05-14T04:03:39.821Z,1028.50
2019-05-14T04:04:39.391Z,1028.57
2019-05-14T04:05:40.159Z,1028.54
2019-05-14T04:06:40.299Z,1028.54
2019-05-14T04:07:50.119Z,1028.53
2019-05-14T04:08:39.159Z,1028.54
2019-05-14T04:09:40.040Z,1028.53
2019-05-14T04:10:39.680Z,1028.51
2019-05-14T04:11:39.808Z,1028.51
2019-05-14T04:12:40.385Z,1028.45
2019-05-14T04:13:40.477Z,1028.47
2019-05-14T04:14:39.865Z,1028.42
2019-05-14T04:15:39.176Z,1028.52
2019-05-14T04:16:39.809Z,1028.47
2019-05-14T04:17:42.142Z,1028.47
2019-05-14T04:18:40.345Z,1028.47
2019-05-14T04:19:39.364Z,1028.46
2019-05-14T04:20:39.268Z,1028.48
2019-05-14T04:21:40.056Z,1028.48
2019-05-14T04:22:39.285Z,1028.54
2019-05-14T04:23:39.736Z,1028.51
2019-05-14T04:24:41.106Z,1028.58
2019-05-14T04:25:38.964Z,1028.60
2019-05-14T04:26:56.219Z,1028.58
2019-05-14T04:27:40.042Z,1028.61
2019-05-14T04:28:39.287Z,1028.62
2019-05-14T04:29:39.599Z,1028.58
2019-05-14T04:30:40.033Z,1028.60
2019-05-14T04:31:39.016Z,1028.60
2019-05-14T04:32:39.456Z,1028.60
2019-05-14T04:33:39.217Z,1028.58
2019-05-14T04:34:39.736Z,1028.63
2019-05-14T04:35:40.082Z,1028.64
2019-05-14T04:36:39.212Z,1028.63
2019-05-14T04:37:39.940Z,1028.62
2019-05-14T04:38:40.839Z,1028.67
2019-05-14T04:39:39.522Z,1028.69
2019-05-14T04:40:39.972Z,1028.66
2019-05-14T04:41:39.335Z,1028.68
2019-05-14T04:42:40.119Z,1028.68
2019-05-14T04:43:39.969Z,1028.68
2019-05-14T04:44:40.369Z,1028.72
2019-05-14T04:45:39.581Z,1028.68
2019-05-14T04:46:39.573Z,1028.69
2019-05-14T04:47:42.083Z,1028.69
2019-05-14T04:48:43.065Z,1028.69
2019-05-14T04:49:39.956Z,1028.69
2019-05-14T04:50:40.472Z,1028.72
2019-05-14T04:51:39.692Z,1028.71
2019-05-14T04:52:40.334Z,1028.72
2019-05-14T04:53:39.422Z,1028.70
2019-05-14T04:54:39.389Z,1028.71
2019-05-14T04:55:40.108Z,1028.67
2019-05-14T04:56:39.816Z,1028.66
2019-05-14T04:57:39.186Z,1028.67
2019-05-14T04:58:40.919Z,1028.69
2019-05-14T04:59:39.664Z,1028.71
2019-05-14T05:00:39.128Z,1028.72
2019-05-14T05:01:40.185Z,1028.72
2019-05-14T05:02:39.732Z,1028.75
2019-05-14T05:03:40.062Z,1028.74
2019-05-14T05:04:40.875Z,1028.76
2019-05-14T05:05:39.412Z,1028.73
2019-05-14T05:06:39.669Z,1028.68
2019-05-14T05:07:40.026Z,1028.66
2019-05-14T05:08:39.488Z,1028.67
2019-05-14T05:09:39.723Z,1028.67
2019-05-14T05:10:39.887Z,1028.64
2019-05-14T05:11:39.407Z,1028.67
2019-05-14T05:12:38.769Z,1028.67
2019-05-14T05:13:39.573Z,1028.65
2019-05-14T05:14:38.853Z,1028.63
2019-05-14T05:15:39.563Z,1028.63
2019-05-14T05:16:39.158Z,1028.68
2019-05-14T05:17:46.603Z,1028.62
2019-05-14T05:18:39.979Z,1028.63
2019-05-14T05:19:39.416Z,1028.64
2019-05-14T05:20:39.337Z,1028.63
2019-05-14T05:21:38.802Z,1028.59
2019-05-14T05:22:39.384Z,1028.61
2019-05-14T05:23:38.699Z,1028.59
2019-05-14T05:24:38.099Z,1028.58
2019-05-14T05:25:38.409Z,1028.57
2019-05-14T05:26:39.219Z,1028.61
2019-05-14T05:27:38.223Z,1028.65
2019-05-14T05:28:39.182Z,1028.64
2019-05-14T05:29:39.292Z,1028.62
2019-05-14T05:30:38.517Z,1028.65
2019-05-14T05:31:38.098Z,1028.63
2019-05-14T05:32:38.874Z,1028.65
2019-05-14T05:33:38.375Z,1028.66
2019-05-14T05:34:38.802Z,1028.69
2019-05-14T05:35:39.241Z,1028.73
2019-05-14T05:36:38.215Z,1028.68
2019-05-14T05:37:38.419Z,1028.68
2019-05-14T05:38:39.469Z,1028.71
2019-05-14T05:39:38.589Z,1028.67
2019-05-14T05:40:39.193Z,1028.65
2019-05-14T05:41:38.496Z,1028.64
2019-05-14T05:42:38.558Z,1028.65
2019-05-14T05:43:39.108Z,1028.62
2019-05-14T05:44:39.162Z,1028.66
2019-05-14T05:45:38.081Z,1028.71
2019-05-14T05:46:38.884Z,1028.66
2019-05-14T05:47:38.980Z,1028.66
2019-05-14T05:48:38.897Z,1028.71
2019-05-14T05:49:38.165Z,1028.62
2019-05-14T05:50:38.925Z,1028.66
2019-05-14T05:51:39.087Z,1028.65
2019-05-14T05:52:38.723Z,1028.69
2019-05-14T05:53:39.070Z,1028.68
2019-05-14T05:54:38.472Z,1028.64
2019-05-14T05:55:39.224Z,1028.66
2019-05-14T05:56:38.808Z,1028.67
2019-05-14T05:57:38.969Z,1028.66
2019-05-14T05:58:39.447Z,1028.66
2019-05-14T05:59:39.069Z,1028.67
2019-05-14T06:00:39.543Z,1028.70
2019-05-14T06:01:42.829Z,1028.61
2019-05-14T06:02:40.065Z,1028.60
2019-05-14T06:03:39.088Z,1028.63
2019-05-14T06:04:38.969Z,1028.66
2019-05-14T06:05:38.940Z,1028.71
2019-05-14T06:06:38.874Z,1028.66
2019-05-14T06:07:39.208Z,1028.62
2019-05-14T06:08:38.776Z,1028.63
2019-05-14T06:09:38.178Z,1028.65
2019-05-14T06:10:36.686Z,1028.62
2019-05-14T06:11:38.069Z,1028.60
2019-05-14T06:12:38.903Z,1028.68
2019-05-14T06:13:38.818Z,1028.67
2019-05-14T06:14:38.233Z,1028.62
2019-05-14T06:15:47.523Z,1028.63
2019-05-14T06:16:38.427Z,1028.52
2019-05-14T06:17:39.014Z,1028.61
2019-05-14T06:18:38.798Z,1028.53
2019-05-14T06:19:38.186Z,1028.54
2019-05-14T06:20:38.719Z,1028.54
2019-05-14T06:21:36.520Z,1028.58
2019-05-14T06:22:38.481Z,1028.56
2019-05-14T06:23:38.608Z,1028.59
2019-05-14T06:24:38.774Z,1028.54
2019-05-14T06:25:39.728Z,1028.52
2019-05-14T06:26:38.430Z,1028.57
2019-05-14T06:27:38.060Z,1028.53
2019-05-14T06:28:40.351Z,1028.50
2019-05-14T06:29:38.257Z,1028.55
2019-05-14T06:30:39.305Z,1028.50
2019-05-14T06:31:38.715Z,1028.44
2019-05-14T06:32:38.721Z,1028.37
2019-05-14T06:33:39.132Z,1028.44
2019-05-14T06:34:38.306Z,1028.42
2019-05-14T06:35:39.348Z,1028.46
2019-05-14T06:36:39.387Z,1028.49
2019-05-14T06:37:38.566Z,1028.49
2019-05-14T06:38:38.611Z,1028.56
2019-05-14T06:39:38.839Z,1028.49
2019-05-14T06:40:36.316Z,1028.54
2019-05-14T06:41:40.201Z,1028.48
2019-05-14T06:42:39.385Z,1028.57
2019-05-14T06:43:36.264Z,1028.56
2019-05-14T06:44:38.376Z,1028.59
2019-05-14T06:45:38.845Z,1028.56
2019-05-14T06:46:36.239Z,1028.58
2019-05-14T06:47:38.200Z,1028.57
2019-05-14T06:48:36.218Z,1028.54
2019-05-14T06:49:38.346Z,1028.53
2019-05-14T06:50:38.953Z,1028.42
2019-05-14T06:51:36.188Z,1028.51
2019-05-14T06:52:38.394Z,1028.71
2019-05-14T06:53:39.109Z,1028.56
2019-05-14T06:54:38.468Z,1028.54
2019-05-14T06:55:36.173Z,1028.60
2019-05-14T06:56:38.382Z,1028.55
2019-05-14T06:57:36.129Z,1028.47
2019-05-14T06:58:38.661Z,1028.46
2019-05-14T06:59:38.044Z,1028.60
2019-05-14T07:00:39.176Z,1028.45
2019-05-14T07:01:38.271Z,1028.47
2019-05-14T07:02:40.669Z,1028.51
2019-05-14T07:03:38.210Z,1028.50
2019-05-14T07:04:36.062Z,1028.52
2019-05-14T07:05:36.520Z,1028.47
2019-05-14T07:06:38.927Z,1028.52
2019-05-14T07:07:36.032Z,1028.52
2019-05-14T07:08:36.000Z,1028.70
2019-05-14T07:09:38.243Z,1028.53
2019-05-14T07:10:36.034Z,1028.59
2019-05-14T07:11:38.632Z,1028.52
2019-05-14T07:12:38.513Z,1029.00
2019-05-14T07:13:38.279Z,1028.63
2019-05-14T07:14:35.952Z,1028.52
2019-05-14T07:15:38.458Z,1028.55
2019-05-14T07:16:38.806Z,1028.52
2019-05-14T07:17:38.176Z,1028.69
2019-05-14T07:18:46.536Z,1028.77
2019-05-14T07:19:38.492Z,1028.50
2019-05-14T07:20:35.869Z,1028.46
2019-05-14T07:21:38.217Z,1028.48
2019-05-14T07:22:35.891Z,1028.35
2019-05-14T07:23:38.412Z,1028.45
2019-05-14T07:24:38.080Z,1028.42
2019-05-14T07:25:35.811Z,1028.42
2019-05-14T07:26:38.533Z,1028.44
2019-05-14T07:27:35.799Z,1028.51
2019-05-14T07:28:35.902Z,1028.53
2019-05-14T07:29:38.618Z,1028.54
2019-05-14T07:30:35.816Z,1028.46
2019-05-14T07:31:38.299Z,1028.41
2019-05-14T07:32:35.752Z,1028.44
2019-05-14T07:33:38.510Z,1028.74
2019-05-14T07:34:35.741Z,1028.52
2019-05-14T07:35:38.085Z,1028.40
2019-05-14T07:36:36.399Z,1028.37
2019-05-14T07:37:35.693Z,1028.38
2019-05-14T07:38:35.701Z,1028.48
2019-05-14T07:39:38.351Z,1028.44
2019-05-14T07:40:38.607Z,1028.47
2019-05-14T07:41:38.779Z,1028.43
2019-05-14T07:42:38.135Z,1028.56
2019-05-14T07:43:36.152Z,1028.49
2019-05-14T07:44:35.645Z,1028.56
2019-05-14T07:45:35.591Z,1028.49
2019-05-14T07:46:35.651Z,1028.44
2019-05-14T07:47:38.608Z,1028.44
2019-05-14T07:48:36.142Z,1028.40
2019-05-14T07:49:35.539Z,1028.38
2019-05-14T07:50:35.558Z,1028.30
2019-05-14T07:51:35.542Z,1028.37
2019-05-14T07:52:35.507Z,1028.40
2019-05-14T07:53:39.678Z,1028.40
2019-05-14T07:54:38.719Z,1028.32
2019-05-14T07:55:35.509Z,1028.42
2019-05-14T07:56:35.478Z,1028.88
2019-05-14T07:57:35.468Z,1028.50
2019-05-14T07:58:35.450Z,1028.58
2019-05-14T07:59:35.448Z,1028.35
2019-05-14T08:00:36.138Z,1028.35
2019-05-14T08:01:35.430Z,1028.39
2019-05-14T08:02:37.855Z,1028.43
2019-05-14T08:03:35.403Z,1028.47
2019-05-14T08:04:38.038Z,1029.10
2019-05-14T08:05:35.369Z,1028.39
2019-05-14T08:06:35.370Z,1029.04
2019-05-14T08:07:35.350Z,1028.63
2019-05-14T08:08:38.310Z,1028.44
2019-05-14T08:09:35.323Z,1028.99
2019-05-14T08:10:35.427Z,1028.27
2019-05-14T08:11:35.373Z,1028.38
2019-05-14T08:12:35.289Z,1028.40
2019-05-14T08:13:35.286Z,1028.27
2019-05-14T08:14:46.263Z,1028.25
2019-05-14T08:15:38.520Z,1028.24
2019-05-14T08:16:35.255Z,1028.67
2019-05-14T08:17:35.272Z,1028.29
2019-05-14T08:18:36.145Z,1028.20
2019-05-14T08:19:35.215Z,1028.20
2019-05-14T08:20:35.203Z,1028.22
2019-05-14T08:21:35.198Z,1028.22
2019-05-14T08:22:35.215Z,1028.15
2019-05-14T08:23:35.185Z,1028.16
2019-05-14T08:24:38.331Z,1028.26
2019-05-14T08:25:35.158Z,1028.16
2019-05-14T08:26:35.162Z,1028.27
2019-05-14T08:27:35.129Z,1028.20
2019-05-14T08:28:35.147Z,1028.08
2019-05-14T08:29:39.138Z,1028.12
2019-05-14T08:30:35.682Z,1028.22
2019-05-14T08:31:35.118Z,1028.16
2019-05-14T08:32:35.079Z,1028.21
2019-05-14T08:33:35.104Z,1028.16
2019-05-14T08:34:35.066Z,1028.63
2019-05-14T08:35:35.312Z,1028.44
2019-05-14T08:36:35.030Z,1028.17
2019-05-14T08:37:35.650Z,1028.72
2019-05-14T08:38:35.026Z,1028.56
2019-05-14T08:39:35.026Z,1028.65
2019-05-14T08:40:34.991Z,1027.93
2019-05-14T08:41:35.028Z,1028.60
2019-05-14T08:42:35.272Z,1028.72
2019-05-14T08:43:34.953Z,1028.64
2019-05-14T08:44:34.950Z,1027.90
2019-05-14T08:45:34.945Z,1027.83
2019-05-14T08:46:34.971Z,1027.89
2019-05-14T08:47:34.950Z,1028.05
2019-05-14T08:48:34.914Z,1027.80
2019-05-14T08:49:41.945Z,1027.84
2019-05-14T08:50:38.749Z,1027.91
2019-05-14T08:51:34.860Z,1027.78
2019-05-14T08:52:35.657Z,1027.84
2019-05-14T08:53:34.866Z,1027.85
2019-05-14T08:54:34.850Z,1027.83
2019-05-14T08:55:37.608Z,1027.86
2019-05-14T08:56:34.820Z,1028.43
2019-05-14T08:57:34.863Z,1028.50
2019-05-14T08:58:34.816Z,1027.96
2019-05-14T08:59:34.793Z,1027.93
2019-05-14T09:00:34.769Z,1028.48
2019-05-14T09:01:34.760Z,1028.51
2019-05-14T09:02:35.662Z,1028.41
2019-05-14T09:03:34.784Z,1028.39
2019-05-14T09:04:34.738Z,1028.42
2019-05-14T09:05:35.672Z,1027.81
2019-05-14T09:06:35.210Z,1027.70
2019-05-14T09:07:34.690Z,1028.05
2019-05-14T09:08:49.869Z,1027.52
2019-05-14T09:09:34.705Z,1027.59
2019-05-14T09:10:35.159Z,1027.59
2019-05-14T09:11:36.593Z,1027.61
2019-05-14T09:12:38.604Z,1027.57
2019-05-14T09:13:35.161Z,1027.55
2019-05-14T09:14:34.631Z,1027.64
2019-05-14T09:15:34.618Z,1027.60
2019-05-14T09:16:45.520Z,1027.81
2019-05-14T09:17:35.583Z,1028.07
2019-05-14T09:18:38.252Z,1027.60
2019-05-14T09:19:35.167Z,1027.66
2019-05-14T09:20:34.555Z,1027.68
2019-05-14T09:21:34.573Z,1027.59
2019-05-14T09:22:34.536Z,1027.68
2019-05-14T09:23:34.519Z,1028.40
2019-05-14T09:24:34.505Z,1028.43
2019-05-14T09:25:34.526Z,1028.35
2019-05-14T09:26:34.518Z,1028.40
2019-05-14T09:27:34.521Z,1027.82
2019-05-14T09:28:34.469Z,1028.42
2019-05-14T09:29:34.456Z,1028.29
2019-05-14T09:30:34.463Z,1028.49
2019-05-14T09:31:34.439Z,1027.41
2019-05-14T09:32:34.447Z,1027.52
2019-05-14T09:33:34.427Z,1027.61
2019-05-14T09:34:35.676Z,1027.46
2019-05-14T09:35:34.394Z,1028.23
2019-05-14T09:36:34.384Z,1027.64
2019-05-14T09:37:34.365Z,1027.98
2019-05-14T09:38:34.396Z,1027.89
2019-05-14T09:39:35.169Z,1027.56
2019-05-14T09:40:34.327Z,1027.58
2019-05-14T09:41:34.313Z,1027.50
2019-05-14T09:42:34.318Z,1027.46
2019-05-14T09:43:34.331Z,1027.39
2019-05-14T09:44:34.334Z,1027.46
2019-05-14T09:45:34.316Z,1028.22
2019-05-14T09:46:34.272Z,1027.65
2019-05-14T09:47:34.260Z,1027.95
2019-05-14T09:48:34.256Z,1028.16
2019-05-14T09:49:34.305Z,1028.18
2019-05-14T09:50:35.175Z,1028.10
2019-05-14T09:51:34.228Z,1028.05
2019-05-14T09:52:34.203Z,1028.12
2019-05-14T09:53:34.192Z,1028.12
2019-05-14T09:54:34.194Z,1028.09
2019-05-14T09:55:34.166Z,1027.73
2019-05-14T09:56:35.677Z,1027.33
2019-05-14T09:57:34.193Z,1027.32
2019-05-14T09:58:34.140Z,1027.26
2019-05-14T09:59:34.678Z,1027.28
2019-05-14T10:00:34.125Z,1027.35
2019-05-14T10:01:34.122Z,1027.33
2019-05-14T10:02:34.144Z,1027.30
2019-05-14T10:03:34.093Z,1027.23
2019-05-14T10:04:34.068Z,1027.28
2019-05-14T10:05:35.682Z,1027.23
2019-05-14T10:06:34.691Z,1027.25
2019-05-14T10:07:34.062Z,1027.35
2019-05-14T10:08:34.038Z,1027.36
2019-05-14T10:09:34.102Z,1027.36
2019-05-14T10:10:34.060Z,1027.43
2019-05-14T10:11:34.006Z,1027.48
2019-05-14T10:12:38.255Z,1027.45
2019-05-14T10:13:34.986Z,1028.37
2019-05-14T10:14:33.980Z,1028.30
2019-05-14T10:15:33.962Z,1027.46
2019-05-14T10:16:33.949Z,1027.71
2019-05-14T10:17:33.960Z,1027.97
2019-05-14T10:18:33.954Z,1027.27
2019-05-14T10:19:33.931Z,1027.24
2019-05-14T10:20:41.188Z,1027.23
2019-05-14T10:21:35.696Z,1027.16
2019-05-14T10:22:33.894Z,1027.26
2019-05-14T10:23:33.899Z,1027.16
2019-05-14T10:24:33.866Z,1027.25
2019-05-14T10:25:33.854Z,1027.25
2019-05-14T10:26:33.834Z,1027.22
2019-05-14T10:27:33.849Z,1027.14
2019-05-14T10:28:33.826Z,1027.32
2019-05-14T10:29:33.825Z,1027.32
2019-05-14T10:30:33.797Z,1027.38
2019-05-14T10:31:33.812Z,1027.40
2019-05-14T10:32:33.782Z,1027.38
2019-05-14T10:33:33.862Z,1027.25
2019-05-14T10:34:33.754Z,1027.54
2019-05-14T10:35:33.763Z,1028.09
2019-05-14T10:36:34.692Z,1028.18
2019-05-14T10:37:33.741Z,1028.30
2019-05-14T10:38:33.729Z,1028.37
2019-05-14T10:39:33.705Z,1027.14
2019-05-14T10:40:33.809Z,1027.04
2019-05-14T10:41:34.196Z,1027.03
2019-05-14T10:42:33.685Z,1027.07
2019-05-14T10:43:33.702Z,1027.15
2019-05-14T10:44:33.639Z,1027.12
2019-05-14T10:45:33.674Z,1027.09
2019-05-14T10:46:34.203Z,1027.15
2019-05-14T10:47:33.612Z,1027.05
2019-05-14T10:48:33.690Z,1027.01
2019-05-14T10:49:33.604Z,1027.13
2019-05-14T10:50:37.778Z,1027.19
2019-05-14T10:51:34.564Z,1027.14
2019-05-14T10:52:33.562Z,1027.15
2019-05-14T10:53:33.548Z,1027.18
2019-05-14T10:54:33.590Z,1027.23
2019-05-14T10:55:33.516Z,1027.29
2019-05-14T10:56:33.524Z,1027.29
2019-05-14T10:57:33.521Z,1027.40
2019-05-14T10:58:34.697Z,1027.23
2019-05-14T10:59:33.490Z,1027.15
2019-05-14T11:00:33.511Z,1027.14
2019-05-14T11:01:34.198Z,1027.12
2019-05-14T11:02:33.450Z,1027.21
2019-05-14T11:03:33.453Z,1027.14
2019-05-14T11:04:34.608Z,1027.09
2019-05-14T11:05:33.474Z,1027.19
2019-05-14T11:06:33.420Z,1027.03
2019-05-14T11:07:33.423Z,1027.06
2019-05-14T11:08:33.410Z,1027.13
2019-05-14T11:09:33.366Z,1027.13
2019-05-14T11:10:33.396Z,1027.13
2019-05-14T11:11:33.368Z,1027.16
2019-05-14T11:12:35.200Z,1027.15
2019-05-14T11:13:33.339Z,1027.27
2019-05-14T11:14:33.344Z,1027.08
2019-05-14T11:15:33.361Z,1027.20
2019-05-14T11:16:33.292Z,1027.12
2019-05-14T11:17:33.300Z,1027.38
2019-05-14T11:18:33.293Z,1027.44
2019-05-14T11:19:33.263Z,1027.13
2019-05-14T11:20:33.286Z,1027.13
2019-05-14T11:21:33.273Z,1026.98
2019-05-14T11:22:33.241Z,1027.02
2019-05-14T11:23:33.222Z,1027.08
2019-05-14T11:24:33.271Z,1027.12
2019-05-14T11:25:33.200Z,1027.12
2019-05-14T11:26:33.188Z,1027.78
2019-05-14T11:27:33.186Z,1027.36
2019-05-14T11:28:33.186Z,1027.23
2019-05-14T11:29:33.159Z,1027.00
2019-05-14T11:30:33.177Z,1027.07
2019-05-14T11:31:34.352Z,1026.99
2019-05-14T11:32:33.137Z,1026.94
2019-05-14T11:33:33.109Z,1026.95
2019-05-14T11:34:33.100Z,1027.95
2019-05-14T11:35:33.122Z,1027.21
2019-05-14T11:36:33.072Z,1028.03
2019-05-14T11:37:33.098Z,1028.04
2019-05-14T11:38:37.163Z,1026.83
2019-05-14T11:39:33.049Z,1026.93
2019-05-14T11:40:33.066Z,1026.91
2019-05-14T11:41:33.051Z,1026.90
2019-05-14T11:42:33.048Z,1026.84
2019-05-14T11:43:33.003Z,1026.84
2019-05-14T11:44:33.012Z,1026.84
2019-05-14T11:45:32.984Z,1026.81
2019-05-14T11:46:44.421Z,1026.87
2019-05-14T11:47:34.068Z,1026.72
2019-05-14T11:48:32.953Z,1026.94
2019-05-14T11:49:32.939Z,1026.92
2019-05-14T11:50:32.948Z,1026.85
2019-05-14T11:51:58.850Z,1026.94
2019-05-14T11:52:33.899Z,1027.08
2019-05-14T11:53:32.887Z,1027.13
2019-05-14T11:54:32.888Z,1026.94
2019-05-14T11:55:32.916Z,1026.84
2019-05-14T11:56:32.856Z,1026.74
2019-05-14T11:57:32.864Z,1026.78
2019-05-14T11:58:32.860Z,1026.72
2019-05-14T11:59:32.847Z,1026.75
2019-05-14T12:00:32.824Z,1026.81
2019-05-14T12:01:32.873Z,1026.88
2019-05-14T12:02:32.828Z,1026.93
2019-05-14T12:03:32.790Z,1026.87
2019-05-14T12:04:32.786Z,1026.83
2019-05-14T12:05:32.763Z,1026.87